Time;durP1;ratioP1;P1;durP2;ratioP2;P2;SDS_P1;SDS_P2;PMS_P1;PMS_P2;Temp;Humidity;BMP_temperature;BMP_pressure;BME280_temperature;BME280_humidity;BME280_pressure;Samples;Min_cycle;Max_cycle;Signal;HPM_P1;HPM_P2
2022/05/05 00:01:28;;;;;;;0.57;0.57;;;10.70;99.90;;;;;;5092433;28;20666;-73
2022/05/05 00:03:54;;;;;;;0.50;0.50;;;10.60;99.90;;;;;;5092569;28;20188;-73
2022/05/05 00:06:20;;;;;;;0.50;0.50;;;10.60;99.90;;;;;;5092398;28;20642;-73
2022/05/05 00:08:45;;;;;;;0.50;0.50;;;10.70;99.90;;;;;;5092630;28;20277;-72
2022/05/05 00:16:40;;;;;;;0.60;0.60;;;10.40;99.90;;;;;;5092290;28;20281;-73
2022/05/05 00:19:06;;;;;;;0.70;0.70;;;10.40;99.90;;;;;;5092137;28;20268;-72
2022/05/05 00:21:31;;;;;;;0.50;0.50;;;10.50;99.90;;;;;;5092636;28;20231;-72
2022/05/05 00:23:57;;;;;;;0.60;0.60;;;10.50;99.90;;;;;;5074514;28;20273;-73
2022/05/05 00:26:22;;;;;;;0.70;0.70;;;10.40;99.90;;;;;;5074454;28;20172;-72
2022/05/05 00:28:48;;;;;;;0.60;0.60;;;10.40;99.90;;;;;;5092553;28;20253;-73
2022/05/05 00:31:13;;;;;;;0.60;0.60;;;10.50;99.90;;;;;;5091784;28;20193;-72
2022/05/05 00:33:39;;;;;;;0.60;0.60;;;10.40;99.90;;;;;;5092286;28;20174;-72
2022/05/05 00:36:04;;;;;;;0.50;0.50;;;10.50;99.90;;;;;;5092267;28;20197;-72
2022/05/05 00:38:30;;;;;;;0.70;0.70;;;10.40;99.90;;;;;;5092148;28;20209;-72
2022/05/05 00:40:55;;;;;;;0.60;0.60;;;10.30;99.90;;;;;;5091674;28;20217;-72
2022/05/05 00:43:21;;;;;;;0.60;0.60;;;10.30;99.90;;;;;;5092059;28;20236;-72
2022/05/05 00:45:47;;;;;;;0.70;0.70;;;10.40;99.90;;;;;;5091593;28;20162;-73
2022/05/05 00:48:14;;;;;;;0.60;0.60;;;10.30;99.90;;;;;;5092146;28;20177;-73
2022/05/05 00:50:40;;;;;;;0.50;0.50;;;10.30;99.90;;;;;;5091061;28;20275;-73
2022/05/05 00:53:06;;;;;;;0.70;0.70;;;10.20;99.90;;;;;;5092033;28;20208;-73
2022/05/05 00:55:33;;;;;;;0.70;0.70;;;10.20;99.90;;;;;;5091717;28;20193;-73
2022/05/05 00:58:00;;;;;;;0.70;0.70;;;10.10;99.90;;;;;;5091654;28;20201;-73
2022/05/05 01:00:26;;;;;;;0.70;0.70;;;10.00;99.90;;;;;;5091020;28;20174;-73
2022/05/05 01:02:54;;;;;;;0.70;0.70;;;10.00;99.90;;;;;;5091291;28;20177;-72
2022/05/05 01:05:19;;;;;;;0.60;0.60;;;10.00;99.90;;;;;;5091864;28;20170;-73
2022/05/05 01:07:46;;;;;;;0.70;0.70;;;10.00;99.90;;;;;;5091573;28;20204;-73
2022/05/05 01:10:11;;;;;;;0.60;0.60;;;10.00;99.90;;;;;;5091106;28;20221;-73
2022/05/05 01:12:37;;;;;;;0.60;0.60;;;9.80;99.90;;;;;;5091493;28;20561;-73
2022/05/05 01:15:05;;;;;;;0.60;0.60;;;9.90;99.90;;;;;;5091362;28;20166;-74
2022/05/05 01:17:30;;;;;;;0.60;0.60;;;9.90;99.90;;;;;;5091508;28;20320;-72
2022/05/05 01:19:55;;;;;;;0.70;0.70;;;10.00;99.90;;;;;;5091058;28;20643;-72
2022/05/05 01:22:21;;;;;;;0.60;0.60;;;9.90;99.90;;;;;;5091480;28;20194;-72
2022/05/05 01:30:15;;;;;;;0.60;0.60;;;9.70;99.90;;;;;;5091108;28;20172;-73
2022/05/05 01:32:40;;;;;;;0.60;0.60;;;9.70;99.90;;;;;;5091517;28;20174;-74
2022/05/05 01:35:06;;;;;;;0.57;0.57;;;9.90;99.90;;;;;;5094399;28;20170;-72
2022/05/05 01:37:31;;;;;;;0.63;0.63;;;10.00;99.90;;;;;;5095562;28;20240;-73
2022/05/05 01:39:57;;;;;;;0.60;0.60;;;10.00;99.90;;;;;;5094828;28;20635;-73
2022/05/05 01:42:23;;;;;;;0.60;0.60;;;9.90;99.90;;;;;;5095175;28;20200;-73
2022/05/05 01:44:48;;;;;;;0.70;0.70;;;9.90;99.90;;;;;;5095396;28;20173;-73
2022/05/05 01:47:14;;;;;;;0.60;0.60;;;9.90;99.90;;;;;;5095386;28;20181;-73
2022/05/05 01:49:39;;;;;;;0.50;0.50;;;9.90;99.90;;;;;;5094714;28;20186;-75
2022/05/05 01:52:09;;;;;;;0.70;0.70;;;9.90;99.90;;;;;;5095055;28;20194;-72
2022/05/05 01:54:34;;;;;;;0.60;0.60;;;9.70;99.90;;;;;;5095116;28;20261;-72
2022/05/05 01:57:00;;;;;;;0.67;0.67;;;9.60;99.90;;;;;;5095022;28;20300;-72
2022/05/05 01:59:25;;;;;;;0.60;0.60;;;9.70;99.90;;;;;;5094682;28;20169;-73
2022/05/05 02:01:51;;;;;;;0.60;0.60;;;9.80;99.90;;;;;;5094941;28;20193;-72
2022/05/05 02:04:16;;;;;;;0.60;0.60;;;9.80;99.90;;;;;;5094862;28;20166;-72
2022/05/05 02:06:42;;;;;;;0.67;0.67;;;9.70;99.90;;;;;;5094972;28;20173;-72
2022/05/05 02:09:07;;;;;;;0.70;0.70;;;9.70;99.90;;;;;;5094169;28;20165;-72
2022/05/05 02:11:33;;;;;;;0.70;0.70;;;9.70;99.90;;;;;;5094685;28;20281;-73
2022/05/05 02:13:59;;;;;;;0.60;0.60;;;9.80;99.90;;;;;;5095035;28;20248;-72
2022/05/05 02:16:24;;;;;;;0.60;0.60;;;9.80;99.90;;;;;;5094768;28;20189;-72
2022/05/05 02:18:50;;;;;;;0.60;0.60;;;9.70;99.90;;;;;;5094483;28;20193;-72
2022/05/05 02:21:16;;;;;;;0.60;0.60;;;9.80;99.90;;;;;;5094405;28;20193;-72
2022/05/05 02:23:42;;;;;;;0.50;0.50;;;9.80;99.90;;;;;;5094543;28;20670;-71
2022/05/05 02:26:07;;;;;;;0.60;0.60;;;9.70;99.90;;;;;;5094637;28;20261;-72
2022/05/05 02:28:33;;;;;;;0.60;0.60;;;9.80;99.90;;;;;;5094353;28;20182;-72
2022/05/05 02:30:58;;;;;;;0.60;0.60;;;9.80;99.90;;;;;;5093967;28;20198;-73
2022/05/05 02:33:24;;;;;;;0.60;0.60;;;9.70;99.90;;;;;;5094415;28;20169;-72
2022/05/05 02:38:42;;;;;;;0.60;0.60;;;9.60;99.90;;;;;;5094243;28;20208;-72
2022/05/05 02:38:44;;;;;;;0.70;0.70;;;9.60;99.90;;;;;;5094010;28;20210;-73
2022/05/05 02:41:10;;;;;;;0.70;0.70;;;9.60;99.90;;;;;;5093522;28;20684;-72
2022/05/05 02:43:36;;;;;;;0.77;0.77;;;9.50;99.90;;;;;;5094276;28;20170;-72
2022/05/05 02:46:01;;;;;;;0.70;0.70;;;9.40;99.90;;;;;;5092807;28;20583;-72
2022/05/05 02:48:27;;;;;;;0.60;0.60;;;9.40;99.90;;;;;;5093998;28;20308;-72
2022/05/05 02:50:52;;;;;;;0.60;0.60;;;9.40;99.90;;;;;;5092891;28;20220;-72
2022/05/05 02:56:02;;;;;;;0.70;0.70;;;9.20;99.90;;;;;;5094129;28;20319;-73
2022/05/05 02:58:29;;;;;;;0.70;0.70;;;9.20;99.90;;;;;;5093771;28;20757;-72
2022/05/05 03:00:55;;;;;;;0.70;0.70;;;9.20;99.90;;;;;;5093268;28;20559;-73
2022/05/05 03:03:20;;;;;;;0.60;0.60;;;9.20;99.90;;;;;;5093555;28;20576;-72
2022/05/05 03:05:46;;;;;;;0.70;0.70;;;9.10;99.90;;;;;;5093760;28;20174;-72
2022/05/05 03:08:12;;;;;;;0.70;0.70;;;9.00;99.90;;;;;;5093562;28;20190;-73
2022/05/05 03:10:39;;;;;;;0.70;0.70;;;9.00;99.90;;;;;;5093089;28;20276;-72
2022/05/05 03:13:04;;;;;;;0.70;0.70;;;9.00;99.90;;;;;;5093604;28;20178;-72
2022/05/05 03:15:30;;;;;;;0.70;0.70;;;8.90;99.90;;;;;;5093299;28;20247;-73
2022/05/05 03:17:56;;;;;;;0.80;0.80;;;8.80;99.90;;;;;;5093432;28;20217;-72
2022/05/05 03:20:21;;;;;;;0.67;0.67;;;8.70;99.90;;;;;;5093139;28;20170;-73
2022/05/05 03:22:47;;;;;;;0.60;0.60;;;8.60;99.90;;;;;;5093309;28;20545;-73
2022/05/05 03:25:13;;;;;;;0.70;0.70;;;8.60;99.90;;;;;;5093435;28;20243;-72
2022/05/05 03:27:39;;;;;;;0.60;0.60;;;8.60;99.90;;;;;;5093467;28;20737;-73
2022/05/05 03:30:06;;;;;;;0.70;0.70;;;8.70;99.90;;;;;;5092850;28;20714;-73
2022/05/05 03:32:32;;;;;;;0.70;0.70;;;8.80;99.90;;;;;;5093149;28;20204;-73
2022/05/05 03:34:58;;;;;;;0.70;0.70;;;8.80;99.90;;;;;;5093571;28;20193;-73
2022/05/05 03:37:27;;;;;;;0.70;0.70;;;8.90;99.90;;;;;;5093407;28;20209;-74
2022/05/05 03:39:53;;;;;;;0.60;0.60;;;8.80;99.90;;;;;;5092644;28;20609;-73
2022/05/05 03:42:18;;;;;;;0.70;0.70;;;8.70;99.90;;;;;;5093139;28;20276;-73
2022/05/05 03:44:44;;;;;;;0.70;0.70;;;8.70;99.90;;;;;;5093138;28;20260;-73
2022/05/05 03:47:09;;;;;;;0.73;0.73;;;8.70;99.90;;;;;;5092876;28;20180;-73
2022/05/05 03:49:35;;;;;;;0.60;0.60;;;8.70;99.90;;;;;;5092550;28;20180;-73
2022/05/05 03:52:00;;;;;;;0.60;0.60;;;8.80;99.90;;;;;;5102928;22;20645;-77
2022/05/05 03:54:26;;;;;;;0.80;0.80;;;8.90;99.90;;;;;;5035209;28;20586;-77
2022/05/05 03:56:52;;;;;;;0.60;0.60;;;8.90;99.90;;;;;;5035663;28;20567;-76
2022/05/05 03:59:18;;;;;;;0.60;0.60;;;8.90;99.90;;;;;;5036370;28;20188;-77
2022/05/05 04:01:43;;;;;;;0.60;0.60;;;9.10;99.90;;;;;;5036280;28;20199;-77
2022/05/05 04:04:08;;;;;;;0.60;0.60;;;9.20;99.90;;;;;;5036345;28;20625;-76
2022/05/05 04:06:34;;;;;;;0.70;0.70;;;9.40;99.90;;;;;;5035885;28;20735;-76
2022/05/05 04:09:03;;;;;;;0.83;0.83;;;9.40;99.90;;;;;;5032231;28;20187;-77
2022/05/05 04:11:28;;;;;;;0.60;0.60;;;9.40;99.90;;;;;;5032402;28;20207;-76
2022/05/05 04:13:54;;;;;;;0.60;0.60;;;9.60;99.90;;;;;;5032504;28;20175;-75
2022/05/05 04:16:19;;;;;;;0.77;0.77;;;9.50;99.90;;;;;;5032292;28;20201;-76
2022/05/05 04:18:45;;;;;;;0.70;0.70;;;9.50;99.90;;;;;;5032338;28;20257;-75
2022/05/05 04:21:10;;;;;;;0.70;0.70;;;9.60;99.90;;;;;;5031860;28;20219;-76
2022/05/05 04:23:37;;;;;;;0.70;0.70;;;9.70;99.90;;;;;;5032158;28;20203;-76
2022/05/05 04:26:06;;;;;;;0.70;0.70;;;9.80;99.90;;;;;;5032553;28;20207;-76
2022/05/05 04:28:32;;;;;;;0.70;0.70;;;9.80;99.90;;;;;;5032022;28;20180;-75
2022/05/05 04:30:58;;;;;;;0.70;0.70;;;9.90;99.90;;;;;;5031583;28;20261;-75
2022/05/05 04:33:24;;;;;;;0.70;0.70;;;9.60;99.90;;;;;;5032248;28;20591;-76
2022/05/05 04:35:49;;;;;;;0.63;0.63;;;9.50;99.90;;;;;;5032334;28;20184;-76
2022/05/05 04:38:15;;;;;;;0.60;0.60;;;9.50;99.90;;;;;;5031756;28;20226;-76
2022/05/05 04:40:41;;;;;;;0.70;0.70;;;9.50;99.90;;;;;;5031163;28;20192;-76
2022/05/05 04:43:07;;;;;;;0.60;0.60;;;9.50;99.90;;;;;;5031677;28;20180;-75
2022/05/05 04:45:32;;;;;;;0.60;0.60;;;9.60;99.90;;;;;;5031375;28;20175;-76
2022/05/05 04:47:58;;;;;;;0.70;0.70;;;9.80;99.90;;;;;;5031628;28;20184;-76
2022/05/05 04:50:24;;;;;;;0.60;0.60;;;9.90;99.90;;;;;;5031232;28;20188;-76
2022/05/05 04:52:51;;;;;;;0.70;0.70;;;10.00;99.90;;;;;;5031411;28;20679;-76
2022/05/05 04:55:16;;;;;;;0.60;0.60;;;10.10;99.90;;;;;;5031938;28;20261;-76
2022/05/05 04:57:42;;;;;;;0.60;0.60;;;10.20;99.90;;;;;;5032269;28;20247;-75
2022/05/05 05:00:09;;;;;;;0.70;0.70;;;10.30;99.90;;;;;;5031262;28;20262;-76
2022/05/05 05:02:35;;;;;;;0.80;0.80;;;10.30;99.90;;;;;;5032221;28;20188;-76
2022/05/05 05:05:00;;;;;;;0.70;0.70;;;9.90;99.90;;;;;;5032175;28;20174;-76
2022/05/05 05:07:26;;;;;;;0.50;0.50;;;9.90;99.90;;;;;;5031815;28;20199;-75
2022/05/05 05:09:52;;;;;;;0.60;0.60;;;9.90;99.90;;;;;;5030437;28;20238;-75
2022/05/05 05:12:17;;;;;;;0.60;0.60;;;9.90;99.90;;;;;;5032101;28;20195;-75
2022/05/05 05:14:43;;;;;;;0.53;0.53;;;10.00;99.90;;;;;;5031495;28;20222;-76
2022/05/05 05:17:08;;;;;;;0.70;0.70;;;10.00;99.90;;;;;;5032077;28;20222;-77
2022/05/05 05:19:34;;;;;;;0.60;0.60;;;10.10;99.90;;;;;;5031283;28;20167;-74
2022/05/05 05:21:59;;;;;;;0.53;0.53;;;10.20;99.90;;;;;;5031675;28;20188;-75
2022/05/05 05:24:25;;;;;;;0.60;0.60;;;10.30;99.90;;;;;;5031484;28;20586;-75
2022/05/05 05:26:50;;;;;;;0.60;0.60;;;10.40;99.90;;;;;;5031502;28;20195;-74
2022/05/05 05:29:16;;;;;;;0.60;0.60;;;10.40;99.90;;;;;;5030959;28;20263;-75
2022/05/05 05:31:41;;;;;;;0.57;0.57;;;10.30;99.90;;;;;;5031850;28;20196;-74
2022/05/05 05:34:07;;;;;;;0.50;0.50;;;10.20;99.90;;;;;;5031573;28;20209;-76
2022/05/05 05:36:32;;;;;;;0.60;0.60;;;10.40;99.90;;;;;;5031397;28;20183;-74
2022/05/05 05:38:58;;;;;;;0.63;0.63;;;10.50;99.90;;;;;;5027158;28;20186;-74
2022/05/05 05:41:23;;;;;;;0.57;0.57;;;10.70;99.90;;;;;;5022138;28;20192;-74
2022/05/05 05:43:49;;;;;;;0.60;0.60;;;10.90;99.90;;;;;;5021004;28;20173;-74
2022/05/05 05:46:15;;;;;;;0.50;0.50;;;11.10;99.90;;;;;;5020540;28;20222;-74
2022/05/05 05:48:40;;;;;;;0.60;0.60;;;11.30;99.90;;;;;;5022299;28;20197;-74
2022/05/05 05:51:06;;;;;;;0.60;0.60;;;11.30;99.90;;;;;;5019769;28;20196;-75
2022/05/05 05:53:32;;;;;;;0.40;0.40;;;11.30;99.90;;;;;;5003363;28;20213;-75
2022/05/05 05:55:57;;;;;;;0.60;0.60;;;11.10;99.90;;;;;;5022048;28;20187;-74
2022/05/05 05:58:23;;;;;;;0.70;0.70;;;11.00;99.90;;;;;;5019909;28;20234;-74
2022/05/05 06:00:48;;;;;;;0.50;0.50;;;10.90;99.90;;;;;;5021108;28;20649;-75
2022/05/05 06:05:59;;;;;;;0.60;0.60;;;11.20;99.90;;;;;;5022991;28;20593;-75
2022/05/05 06:08:24;;;;;;;0.60;0.60;;;11.40;99.90;;;;;;5021933;28;20188;-75
2022/05/05 06:10:50;;;;;;;0.60;0.60;;;11.50;99.90;;;;;;5020375;28;20574;-74
2022/05/05 06:13:15;;;;;;;0.50;0.50;;;11.60;99.90;;;;;;5020698;28;20230;-76
2022/05/05 06:15:41;;;;;;;0.70;0.70;;;11.60;99.90;;;;;;5022928;28;20261;-76
2022/05/05 06:18:07;;;;;;;0.60;0.60;;;11.70;99.90;;;;;;5020530;28;20224;-75
2022/05/05 06:20:32;;;;;;;0.50;0.50;;;11.70;99.90;;;;;;5022553;28;20231;-73
2022/05/05 06:22:59;;;;;;;0.40;0.40;;;11.80;99.90;;;;;;5025779;28;20599;-73
2022/05/05 06:25:24;;;;;;;0.50;0.50;;;11.90;99.90;;;;;;5025889;28;20175;-73
2022/05/05 06:27:51;;;;;;;0.40;0.40;;;12.00;99.90;;;;;;5024677;28;20581;-73
2022/05/05 06:30:17;;;;;;;0.50;0.50;;;12.00;99.90;;;;;;5023199;28;20625;-74
2022/05/05 06:32:44;;;;;;;0.50;0.50;;;12.20;99.90;;;;;;5026043;28;20226;-75
2022/05/05 06:35:11;;;;;;;0.50;0.50;;;12.40;99.90;;;;;;5034468;28;20179;-72
2022/05/05 06:37:36;;;;;;;0.50;0.50;;;12.60;77.90;;;;;;5034382;28;20270;-73
2022/05/05 06:40:06;;;;;;;0.50;0.50;;;12.50;6.00;;;;;;5033635;28;20637;-73
2022/05/05 06:42:32;;;;;;;0.50;0.50;;;12.40;8.00;;;;;;5034672;28;20561;-72
2022/05/05 06:44:57;;;;;;;0.50;0.50;;;12.50;68.80;;;;;;5025272;28;20646;-74
2022/05/05 06:47:24;;;;;;;0.50;0.50;;;12.70;59.60;;;;;;5028158;28;20206;-73
2022/05/05 06:49:53;;;;;;;0.40;0.40;;;12.70;27.30;;;;;;5033755;28;20229;-74
2022/05/05 06:52:18;;;;;;;0.50;0.50;;;12.80;34.30;;;;;;5030666;28;20215;-73
2022/05/05 06:54:44;;;;;;;0.50;0.50;;;13.00;11.20;;;;;;5029593;28;20177;-73
2022/05/05 06:57:10;;;;;;;0.40;0.40;;;13.10;1.00;;;;;;5022712;28;20595;-74
2022/05/05 06:59:35;;;;;;;0.40;0.40;;;13.10;1.00;;;;;;5023909;28;20214;-74
2022/05/05 07:02:02;;;;;;;0.40;0.40;;;13.10;1.00;;;;;;5023725;28;20223;-72
2022/05/05 07:07:14;;;;;;;0.40;0.40;;;13.00;1.00;;;;;;5024766;28;20229;-77
2022/05/05 07:12:25;;;;;;;0.50;0.50;;;13.30;1.00;;;;;;5026637;28;20313;-76
2022/05/05 07:14:51;;;;;;;0.50;0.50;;;13.30;1.00;;;;;;5024232;28;20262;-75
2022/05/05 07:17:17;;;;;;;0.40;0.40;;;13.30;1.00;;;;;;5030739;28;20200;-76
2022/05/05 07:19:42;;;;;;;0.47;0.47;;;13.30;1.00;;;;;;5027627;28;20181;-76
2022/05/05 07:22:08;;;;;;;0.40;0.40;;;13.20;1.00;;;;;;5024327;28;20238;-75
2022/05/05 07:24:34;;;;;;;0.40;0.40;;;13.30;1.00;;;;;;5020769;28;20196;-76
2022/05/05 07:27:01;;;;;;;0.40;0.40;;;13.50;1.00;;;;;;5022963;28;20196;-77
2022/05/05 07:29:27;;;;;;;0.50;0.50;;;13.50;1.00;;;;;;5018716;28;20210;-77
2022/05/05 07:31:52;;;;;;;0.40;0.40;;;13.70;1.00;;;;;;5017716;28;20223;-77
2022/05/05 07:34:21;;;;;;;0.40;0.40;;;13.90;1.00;;;;;;5028409;28;20176;-77
2022/05/05 07:36:46;;;;;;;0.50;0.50;;;14.00;1.00;;;;;;5033614;28;20198;-75
2022/05/05 07:39:12;;;;;;;0.30;0.30;;;14.10;1.00;;;;;;5033816;28;20184;-75
2022/05/05 07:41:39;;;;;;;0.57;0.57;;;14.10;1.00;;;;;;5030743;28;20195;-76
2022/05/05 07:44:05;;;;;;;0.40;0.40;;;14.10;1.00;;;;;;5037577;28;20202;-75
2022/05/05 07:46:32;;;;;;;0.40;0.40;;;14.10;1.00;;;;;;5037242;28;20255;-75
2022/05/05 07:48:58;;;;;;;0.53;0.53;;;14.10;1.00;;;;;;5030973;28;20178;-75
2022/05/05 07:51:23;;;;;;;0.50;0.50;;;14.00;1.00;;;;;;5032880;28;20582;-76
2022/05/05 07:56:33;;;;;;;0.40;0.40;;;13.90;1.00;;;;;;5031437;28;20175;-76
2022/05/05 07:58:59;;;;;;;0.40;0.40;;;13.90;1.00;;;;;;5034020;28;20216;-77
2022/05/05 08:01:24;;;;;;;0.40;0.40;;;14.00;1.00;;;;;;5035734;28;20203;-77
2022/05/05 08:03:50;;;;;;;0.40;0.40;;;14.10;1.00;;;;;;5034431;28;20171;-75
2022/05/05 08:06:15;;;;;;;0.50;0.50;;;14.00;1.00;;;;;;5039356;28;20192;-76
2022/05/05 08:08:41;;;;;;;0.40;0.40;;;14.10;1.00;;;;;;5034073;28;20318;-76
2022/05/05 08:11:07;;;;;;;0.40;0.40;;;14.10;1.00;;;;;;5032128;28;20685;-76
2022/05/05 08:13:33;;;;;;;0.40;0.40;;;14.20;1.00;;;;;;5025740;28;20191;-76
2022/05/05 08:15:58;;;;;;;0.50;0.50;;;14.30;1.00;;;;;;5032444;28;20180;-75
2022/05/05 08:18:24;;;;;;;0.40;0.40;;;14.40;1.00;;;;;;5031358;28;20266;-76
2022/05/05 08:20:49;;;;;;;0.40;0.40;;;14.30;1.00;;;;;;5047924;28;20203;-77
2022/05/05 08:23:15;;;;;;;0.47;0.47;;;14.40;1.00;;;;;;5051227;28;20203;-77
2022/05/05 08:28:31;;;;;;;0.40;0.40;;;14.70;1.00;;;;;;5033653;28;20186;-76
2022/05/05 08:30:57;;;;;;;0.50;0.50;;;14.80;1.00;;;;;;5029672;28;20200;-76
2022/05/05 08:33:27;;;;;;;0.40;0.40;;;14.80;99.90;;;;;;5024647;28;20580;-73
2022/05/05 08:35:54;;;;;;;0.40;0.40;;;14.90;1.00;;;;;;5023068;28;20203;-75
2022/05/05 08:38:20;;;;;;;0.43;0.43;;;14.80;99.90;;;;;;5027567;28;20466;-74
2022/05/05 08:40:45;;;;;;;0.40;0.40;;;14.70;1.00;;;;;;5030771;28;20203;-75
2022/05/05 08:43:12;;;;;;;0.50;0.50;;;14.70;99.90;;;;;;5030480;28;20183;-75
2022/05/05 08:45:38;;;;;;;0.30;0.30;;;14.60;99.90;;;;;;5031962;28;20176;-75
2022/05/05 08:48:07;;;;;;;0.40;0.40;;;14.50;1.00;;;;;;5032140;28;20179;-75
2022/05/05 08:50:34;;;;;;;0.40;0.40;;;14.60;1.00;;;;;;5031151;28;20200;-75
2022/05/05 08:53:02;;;;;;;0.50;0.50;;;14.50;99.90;;;;;;5032017;28;20245;-76
2022/05/05 08:55:28;;;;;;;0.40;0.40;;;14.50;1.00;;;;;;5032038;28;20191;-75
2022/05/05 08:57:54;;;;;;;0.40;0.40;;;14.50;99.90;;;;;;5024479;28;20681;-75
2022/05/05 09:00:20;;;;;;;0.30;0.30;;;14.30;1.00;;;;;;5021856;28;20694;-75
2022/05/05 09:02:56;;;;;;;0.30;0.30;;;14.30;1.00;;;;;;5027750;28;20180;-76
2022/05/05 09:06:01;;;;;;;0.40;0.40;;;14.30;1.00;;;;;;5025041;28;20182;-76
2022/05/05 09:08:29;;;;;;;0.43;0.43;;;14.20;1.00;;;;;;4966709;28;20205;-75
2022/05/05 09:10:56;;;;;;;0.40;0.40;;;14.20;1.00;;;;;;4966894;28;20284;-76
2022/05/05 09:13:34;;;;;;;0.40;0.40;;;14.30;1.00;;;;;;4994088;28;20220;-76
2022/05/05 09:16:02;;;;;;;0.40;0.40;;;14.20;1.00;;;;;;5025799;28;20592;-77
2022/05/05 09:18:29;;;;;;;0.40;0.40;;;14.20;1.00;;;;;;5023770;28;20211;-75
2022/05/05 09:20:56;;;;;;;0.40;0.40;;;14.10;1.00;;;;;;5025963;28;20204;-76
2022/05/05 09:24:34;;;;;;;0.50;0.50;;;14.10;1.00;;;;;;5023258;28;20175;-75
2022/05/05 09:26:26;;;;;;;0.40;0.40;;;14.10;1.00;;;;;;5025652;28;20168;-75
2022/05/05 09:28:52;;;;;;;0.50;0.50;;;14.10;1.00;;;;;;5024970;28;20184;-75
2022/05/05 09:31:17;;;;;;;0.40;0.40;;;14.00;1.00;;;;;;5029260;28;20295;-76
2022/05/05 09:33:44;;;;;;;0.40;0.40;;;14.10;1.00;;;;;;5029959;28;20632;-77
2022/05/05 09:36:10;;;;;;;0.40;0.40;;;14.10;1.00;;;;;;5029563;28;20195;-77
2022/05/05 09:38:57;;;;;;;0.40;0.40;;;14.00;1.00;;;;;;5027639;28;20270;-76
2022/05/05 09:41:32;;;;;;;0.50;0.50;;;13.90;1.00;;;;;;5029100;28;20208;-74
2022/05/05 09:44:00;;;;;;;0.50;0.50;;;14.00;1.00;;;;;;5029114;28;20182;-75
2022/05/05 09:46:26;;;;;;;0.40;0.40;;;14.00;1.00;;;;;;5022245;28;20262;-75
2022/05/05 09:49:18;;;;;;;0.40;0.40;;;14.00;1.00;;;;;;5020199;28;20261;-75
2022/05/05 09:57:39;;;;;;;0.47;0.47;;;13.90;1.00;;;;;;5012833;28;20224;-75
2022/05/05 09:57:40;;;;;;;0.40;0.40;;;14.00;1.00;;;;;;5096474;22;20233;-81
2022/05/05 10:00:42;;;;;;;0.40;0.40;;;14.10;1.00;;;;;;5059737;28;20183;-81
2022/05/05 10:05:57;;;;;;;0.40;0.40;;;14.40;1.00;;;;;;5051957;28;20191;-81
2022/05/05 10:08:42;;;;;;;0.40;0.40;;;14.40;1.00;;;;;;5045814;28;20267;-83
2022/05/05 10:11:08;;;;;;;0.50;0.50;;;14.60;1.00;;;;;;5041831;28;20218;-81
2022/05/05 10:13:37;;;;;;;0.40;0.40;;;14.60;1.00;;;;;;5042641;28;20172;-80
2022/05/05 10:16:05;;;;;;;0.40;0.40;;;14.60;1.00;;;;;;5044904;28;20243;-79
2022/05/05 10:18:33;;;;;;;0.30;0.30;;;14.70;1.00;;;;;;5043747;28;20207;-80
2022/05/05 10:21:00;;;;;;;0.50;0.50;;;14.60;1.00;;;;;;5043685;28;20198;-80
2022/05/05 10:23:54;;;;;;;0.43;0.43;;;14.60;1.00;;;;;;5038412;28;20750;-79
2022/05/05 10:26:24;;;;;;;0.40;0.40;;;14.50;1.00;;;;;;5038643;28;20579;-80
2022/05/05 10:28:50;;;;;;;0.50;0.50;;;14.50;1.00;;;;;;5037641;28;20316;-80
2022/05/05 10:31:30;;;;;;;0.40;0.40;;;14.60;1.00;;;;;;5040216;28;20223;-79
2022/05/05 10:34:04;;;;;;;0.30;0.30;;;14.60;1.00;;;;;;5043744;28;20190;-78
2022/05/05 10:36:31;;;;;;;0.40;0.40;;;14.60;34.20;;;;;;5047796;28;20191;-78
2022/05/05 10:38:57;;;;;;;0.50;0.50;;;14.50;99.90;;;;;;5043793;28;20223;-78
2022/05/05 10:41:39;;;;;;;0.40;0.40;;;14.40;99.90;;;;;;5046465;28;20200;-79
2022/05/05 10:44:23;;;;;;;0.43;0.43;;;14.40;89.50;;;;;;5046129;28;20188;-82
2022/05/05 10:47:05;;;;;;;0.50;0.50;;;14.50;12.40;;;;;;5041375;28;20180;-79
2022/05/05 10:49:34;;;;;;;0.50;0.50;;;14.50;1.00;;;;;;5041513;28;20175;-80
2022/05/05 10:52:11;;;;;;;0.50;0.50;;;14.60;3.60;;;;;;5025732;28;20276;-79
2022/05/05 10:54:39;;;;;;;0.40;0.40;;;14.70;17.50;;;;;;5020102;28;20206;-79
2022/05/05 10:57:26;;;;;;;0.50;0.50;;;14.70;1.00;;;;;;5016596;28;20684;-80
2022/05/05 11:00:18;;;;;;;0.47;0.47;;;14.50;1.00;;;;;;5014417;28;20176;-78
2022/05/05 11:03:01;;;;;;;0.40;0.40;;;14.50;99.90;;;;;;5014327;28;20179;-80
2022/05/05 11:05:32;;;;;;;0.50;0.50;;;14.70;99.90;;;;;;5015656;28;20668;-79
2022/05/05 11:08:36;;;;;;;0.47;0.47;;;14.70;4.70;;;;;;5018025;28;20173;-80
2022/05/05 11:14:01;;;;;;;0.50;0.50;;;14.70;74.50;;;;;;5018210;28;20289;-81
2022/05/05 11:22:16;;;;;;;0.53;0.53;;;14.70;99.90;;;;;;5017861;28;20234;-80
2022/05/05 11:24:50;;;;;;;0.53;0.53;;;14.70;98.10;;;;;;5017781;28;20531;-79
2022/05/05 11:27:17;;;;;;;0.50;0.50;;;14.60;99.90;;;;;;5016232;28;20200;-80
2022/05/05 11:29:54;;;;;;;0.50;0.50;;;14.70;56.10;;;;;;4998155;28;20176;-80
2022/05/05 11:32:27;;;;;;;0.50;0.50;;;14.70;97.70;;;;;;5034971;28;20207;-79
2022/05/05 11:34:52;;;;;;;0.40;0.40;;;14.80;71.60;;;;;;5019677;28;20199;-81
2022/05/05 11:37:18;;;;;;;0.40;0.40;;;15.00;87.70;;;;;;5016000;28;20689;-77
2022/05/05 11:39:48;;;;;;;0.50;0.50;;;15.20;93.30;;;;;;5022700;28;20244;-80
2022/05/05 11:42:14;;;;;;;0.40;0.40;;;15.30;1.00;;;;;;5025491;28;20759;-80
2022/05/05 11:44:43;;;;;;;0.60;0.60;;;15.60;1.00;;;;;;5025427;28;20239;-83
2022/05/05 11:47:13;;;;;;;0.50;0.50;;;15.90;1.00;;;;;;5035118;28;20168;-79
2022/05/05 11:49:43;;;;;;;0.40;0.40;;;16.10;1.00;;;;;;5034945;28;20210;-78
2022/05/05 11:52:12;;;;;;;0.40;0.40;;;16.50;1.00;;;;;;5041308;28;20188;-80
2022/05/05 11:54:38;;;;;;;0.40;0.40;;;16.70;1.00;;;;;;5033426;28;20168;-80
2022/05/05 11:57:04;;;;;;;0.40;0.40;;;16.90;1.00;;;;;;5015899;28;20254;-79
2022/05/05 12:02:19;;;;;;;0.30;0.30;;;17.40;99.90;;;;;;5020116;28;20696;-81
2022/05/05 12:04:48;;;;;;;0.40;0.40;;;16.90;99.90;;;;;;5035859;28;20179;-81
2022/05/05 12:07:19;;;;;;;0.40;0.40;;;17.00;99.90;;;;;;5039471;28;20180;-77
2022/05/05 12:09:50;;;;;;;0.40;0.40;;;17.10;99.90;;;;;;5036363;28;20628;-80
2022/05/05 12:12:19;;;;;;;0.40;0.40;;;17.20;99.90;;;;;;5028724;28;20216;-77
2022/05/05 12:14:53;;;;;;;0.50;0.50;;;17.20;1.00;;;;;;5023076;28;20274;-80
2022/05/05 12:17:23;;;;;;;0.30;0.30;;;17.00;1.00;;;;;;5026500;28;20199;-79
2022/05/05 12:19:59;;;;;;;0.40;0.40;;;16.90;99.90;;;;;;5021142;28;20233;-79
2022/05/05 12:22:57;;;;;;;0.40;0.40;;;17.10;99.90;;;;;;5019943;28;20195;-80
2022/05/05 12:25:24;;;;;;;0.40;0.40;;;17.40;1.00;;;;;;5019502;28;20184;-84
2022/05/05 12:27:57;;;;;;;0.40;0.40;;;17.60;1.00;;;;;;5016911;28;20191;-82
2022/05/05 12:30:36;;;;;;;0.40;0.40;;;17.70;1.00;;;;;;5024772;28;20171;-79
2022/05/05 12:33:04;;;;;;;0.40;0.40;;;17.80;1.00;;;;;;5015810;28;20180;-79
2022/05/05 12:35:34;;;;;;;0.40;0.40;;;18.10;1.00;;;;;;5016751;28;20169;-79
2022/05/05 12:38:01;;;;;;;0.40;0.40;;;18.50;1.00;;;;;;5015899;28;20212;-79
2022/05/05 12:40:28;;;;;;;0.40;0.40;;;18.40;1.00;;;;;;5015659;28;20730;-79
2022/05/05 12:43:09;;;;;;;0.40;0.40;;;18.40;1.00;;;;;;5018101;28;20179;-82
2022/05/05 12:45:37;;;;;;;0.40;0.40;;;18.30;1.00;;;;;;5019604;28;20176;-80
2022/05/05 12:48:07;;;;;;;0.40;0.40;;;18.20;99.90;;;;;;5026139;28;20551;-81
2022/05/05 12:50:48;;;;;;;0.40;0.40;;;18.20;1.00;;;;;;5019008;28;20196;-83
2022/05/05 13:01:42;;;;;;;0.40;0.40;;;18.20;1.00;;;;;;5030306;28;20194;-79
2022/05/05 13:04:14;;;;;;;0.40;0.40;;;18.40;65.80;;;;;;5031721;28;20190;-79
2022/05/05 13:06:41;;;;;;;0.40;0.40;;;18.60;99.90;;;;;;5011542;28;20185;-80
2022/05/05 13:09:08;;;;;;;0.43;0.43;;;18.80;1.00;;;;;;5011337;28;20173;-81
2022/05/05 13:11:35;;;;;;;0.40;0.40;;;18.90;34.20;;;;;;5010876;28;20246;-79
2022/05/05 13:14:02;;;;;;;0.40;0.40;;;19.10;99.90;;;;;;5011446;28;20180;-80
2022/05/05 13:16:29;;;;;;;0.40;0.40;;;18.90;99.90;;;;;;5014969;28;20180;-78
2022/05/05 13:18:57;;;;;;;0.40;0.40;;;19.30;1.00;;;;;;5014298;28;20650;-80
2022/05/05 13:21:23;;;;;;;0.40;0.40;;;19.00;1.00;;;;;;5032557;28;20700;-79
2022/05/05 13:23:48;;;;;;;0.40;0.40;;;19.20;1.00;;;;;;5033035;28;20175;-76
2022/05/05 13:26:14;;;;;;;0.30;0.30;;;19.00;1.00;;;;;;5033036;28;20218;-79
2022/05/05 13:28:40;;;;;;;0.40;0.40;;;18.80;1.00;;;;;;5033383;28;20176;-78
2022/05/05 13:31:05;;;;;;;0.40;0.40;;;18.70;1.00;;;;;;5040516;28;20617;-81
2022/05/05 13:33:31;;;;;;;0.40;0.40;;;18.60;1.00;;;;;;5047991;28;20176;-78
2022/05/05 13:35:56;;;;;;;0.40;0.40;;;18.50;99.90;;;;;;5049760;28;20168;-79
2022/05/05 13:38:26;;;;;;;0.40;0.40;;;18.30;1.00;;;;;;5057666;28;20192;-80
2022/05/05 13:40:52;;;;;;;0.40;0.40;;;18.50;1.00;;;;;;5065658;28;20220;-79
2022/05/05 13:43:17;;;;;;;0.37;0.37;;;18.50;99.90;;;;;;5048372;28;20176;-77
2022/05/05 13:45:43;;;;;;;0.40;0.40;;;18.40;1.00;;;;;;5043303;28;20180;-80
2022/05/05 13:48:08;;;;;;;0.40;0.40;;;18.30;1.00;;;;;;5040444;28;20255;-79
2022/05/05 13:50:34;;;;;;;0.40;0.40;;;18.40;99.90;;;;;;5039435;28;20194;-79